createdAt,value
2022-10-09T00:04:00.505Z,94354.00
2022-10-09T00:09:04.586Z,94356.13
2022-10-09T00:14:06.577Z,94343.69
2022-10-09T00:19:08.351Z,94346.28
2022-10-09T00:24:10.152Z,94338.50
2022-10-09T00:29:11.975Z,94335.38
2022-10-09T00:34:13.825Z,94339.56
2022-10-09T00:39:15.730Z,94336.31
2022-10-09T00:44:45.585Z,94338.81
2022-10-09T00:49:48.407Z,94348.28
2022-10-09T00:54:50.439Z,94337.19
2022-10-09T00:59:52.211Z,94337.84
2022-10-09T01:04:54.263Z,94330.53
2022-10-09T01:09:59.174Z,94328.84
2022-10-09T01:15:24.190Z,94333.13
2022-10-09T01:20:54.298Z,94326.56
2022-10-09T01:26:14.292Z,94334.50
2022-10-09T01:31:17.303Z,94316.88
2022-10-09T01:36:20.460Z,94336.78
2022-10-09T01:41:22.402Z,94329.13
2022-10-09T01:46:32.645Z,94324.38
2022-10-09T01:51:55.701Z,94324.38
2022-10-09T01:57:00.175Z,94313.38
2022-10-09T02:02:02.322Z,94319.03
2022-10-09T02:07:05.273Z,94316.91
2022-10-09T02:12:10.531Z,94304.88
2022-10-09T02:17:17.819Z,94313.38
2022-10-09T02:22:23.613Z,94310.41
2022-10-09T02:27:26.803Z,94300.88
2022-10-09T02:32:28.962Z,94298.84
2022-10-09T02:37:31.182Z,94306.56
2022-10-09T02:42:33.210Z,94305.84
2022-10-09T02:47:35.137Z,94304.72
2022-10-09T02:52:37.084Z,94308.97
2022-10-09T02:57:38.838Z,94302.72
2022-10-09T03:02:40.894Z,94314.56
2022-10-09T03:07:50.506Z,94314.13
2022-10-09T03:12:52.560Z,94320.56
2022-10-09T03:17:54.423Z,94322.09
2022-10-09T03:22:56.883Z,94318.22
2022-10-09T03:27:58.724Z,94311.97
2022-10-09T03:33:00.581Z,94317.28
2022-10-09T03:38:02.484Z,94317.34
2022-10-09T03:43:04.269Z,94317.03
2022-10-09T03:48:06.526Z,94319.50
2022-10-09T03:53:12.655Z,94324.59
2022-10-09T03:58:14.391Z,94324.69
2022-10-09T04:03:16.201Z,94317.09
2022-10-09T04:08:18.059Z,94330.31
2022-10-09T04:13:20.172Z,94323.13
2022-10-09T04:18:22.657Z,94331.72
2022-10-09T04:23:26.858Z,94336.78
2022-10-09T04:28:30.373Z,94333.53
2022-10-09T04:33:32.425Z,94352.53
2022-10-09T04:38:34.302Z,94342.31
2022-10-09T04:43:36.171Z,94335.50
2022-10-09T04:48:42.366Z,94335.59
2022-10-09T04:53:45.113Z,94336.44
2022-10-09T04:58:48.362Z,94340.88
2022-10-09T05:03:50.989Z,94344.78
2022-10-09T05:08:54.972Z,94348.75
2022-10-09T05:13:56.760Z,94353.44
2022-10-09T05:19:00.642Z,94349.59
2022-10-09T05:24:05.229Z,94347.97
2022-10-09T05:29:10.115Z,94355.28
2022-10-09T05:34:11.985Z,94347.63
2022-10-09T05:39:13.743Z,94351.22
2022-10-09T05:44:15.658Z,94350.09
2022-10-09T05:49:17.522Z,94348.25
2022-10-09T05:54:19.462Z,94345.97
2022-10-09T05:59:21.361Z,94343.69
2022-10-09T06:04:25.017Z,94341.44
2022-10-09T06:09:27.444Z,94333.38
2022-10-09T06:14:29.328Z,94335.41
2022-10-09T06:19:31.231Z,94330.50
2022-10-09T06:24:33.048Z,94337.91
2022-10-09T06:29:34.926Z,94324.06
2022-10-09T06:34:37.003Z,94336.09
2022-10-09T06:39:38.888Z,94338.09
2022-10-09T06:44:43.353Z,94349.00
2022-10-09T06:49:45.405Z,94351.97
2022-10-09T06:54:47.235Z,94351.50
2022-10-09T06:59:50.312Z,94351.84
2022-10-09T07:04:52.126Z,94354.88
2022-10-09T07:09:54.573Z,94346.78
2022-10-09T07:14:56.442Z,94351.63
2022-10-09T07:19:58.381Z,94352.03
2022-10-09T07:25:00.095Z,94356.44
2022-10-09T07:30:02.094Z,94355.34
2022-10-09T07:35:04.183Z,94361.94
2022-10-09T07:40:06.527Z,94369.31
2022-10-09T07:45:08.893Z,94370.94
2022-10-09T07:50:11.155Z,94372.34
2022-10-09T07:55:13.030Z,94378.31
2022-10-09T08:00:15.070Z,94375.44
2022-10-09T08:05:16.910Z,94382.16
2022-10-09T08:10:18.778Z,94379.72
2022-10-09T08:15:20.628Z,94381.56
2022-10-09T08:20:22.575Z,94382.22
2022-10-09T08:25:24.452Z,94375.13
2022-10-09T08:30:26.774Z,94389.25
2022-10-09T08:35:33.700Z,94388.72
2022-10-09T08:40:48.717Z,94392.72
2022-10-09T08:45:51.900Z,94386.81
2022-10-09T08:50:54.167Z,94400.44
2022-10-09T08:55:57.943Z,94393.13
2022-10-09T09:01:16.622Z,94383.28
2022-10-09T09:06:46.461Z,94388.09
2022-10-09T09:11:51.677Z,94379.94
2022-10-09T09:17:15.330Z,94373.25
2022-10-09T09:22:17.798Z,94365.06
2022-10-09T09:27:31.851Z,94364.69
2022-10-09T09:32:34.009Z,94360.22
2022-10-09T09:37:37.790Z,94366.78
2022-10-09T09:42:40.035Z,94359.50
2022-10-09T09:48:12.208Z,94355.16
2022-10-09T09:53:25.828Z,94355.66
2022-10-09T09:58:34.429Z,94341.16
2022-10-09T10:03:36.908Z,94339.47
2022-10-09T10:08:38.916Z,94322.75
2022-10-09T10:13:49.488Z,94336.34
2022-10-09T10:18:51.759Z,94326.94
2022-10-09T10:23:57.375Z,94339.16
2022-10-09T10:29:06.381Z,94319.44
2022-10-09T10:34:16.030Z,94323.91
2022-10-09T10:39:54.639Z,94314.41
2022-10-09T10:45:15.189Z,94311.56
2022-10-09T10:50:18.209Z,94301.31
2022-10-09T10:55:27.037Z,94301.03
2022-10-09T11:00:29.421Z,94297.22
2022-10-09T11:05:47.613Z,94300.19
2022-10-09T11:11:07.649Z,94293.94
2022-10-09T11:16:47.310Z,94289.66
2022-10-09T11:22:23.092Z,94277.97
2022-10-09T11:27:47.874Z,94290.75
2022-10-09T11:33:11.041Z,94277.69
2022-10-09T11:39:06.552Z,94275.09
2022-10-09T11:44:17.438Z,94268.19
2022-10-09T11:49:34.274Z,94268.22
2022-10-09T11:54:36.455Z,94263.59
2022-10-09T11:59:42.294Z,94252.31
2022-10-09T12:04:54.406Z,94253.59
2022-10-09T12:10:03.459Z,94237.94
2022-10-09T12:15:46.334Z,94237.47
2022-10-09T12:20:49.998Z,94230.56
2022-10-09T12:25:54.338Z,94225.66
2022-10-09T12:30:58.445Z,94217.09
2022-10-09T12:36:10.498Z,94208.97
2022-10-09T12:41:21.038Z,94200.78
2022-10-09T12:46:37.819Z,94188.00
2022-10-09T12:51:39.849Z,94180.88
2022-10-09T12:56:42.411Z,94179.34
2022-10-09T13:01:45.897Z,94172.25
2022-10-09T13:06:50.120Z,94155.53
2022-10-09T13:11:56.317Z,94150.94
2022-10-09T13:16:58.266Z,94131.84
2022-10-09T13:22:21.402Z,94124.06
2022-10-09T13:27:33.117Z,94109.47
2022-10-09T13:32:35.061Z,94104.84
2022-10-09T13:37:37.254Z,94102.16
2022-10-09T13:42:39.529Z,94088.06
2022-10-09T13:47:41.458Z,94091.13
2022-10-09T13:52:43.319Z,94084.81
2022-10-09T13:57:49.769Z,94076.59
2022-10-09T14:02:55.679Z,94065.00
2022-10-09T14:07:57.561Z,94072.31
2022-10-09T14:12:59.503Z,94061.41
2022-10-09T14:18:01.945Z,94061.81
2022-10-09T14:23:03.904Z,94047.06
2022-10-09T14:28:05.997Z,94037.09
2022-10-09T14:33:07.974Z,94035.75
2022-10-09T14:38:09.988Z,94024.38
2022-10-09T14:43:12.264Z,94020.28
2022-10-09T14:48:14.491Z,94012.19
2022-10-09T14:53:16.691Z,94010.25
2022-10-09T14:58:18.895Z,94002.56
2022-10-09T15:03:20.906Z,93999.19
2022-10-09T15:08:22.794Z,93991.31
2022-10-09T15:13:24.670Z,93994.28
2022-10-09T15:18:27.723Z,93993.56
2022-10-09T15:23:30.121Z,93981.81
2022-10-09T15:28:32.415Z,93975.56
2022-10-09T15:33:34.571Z,93981.88
2022-10-09T15:38:36.453Z,93976.22
2022-10-09T15:43:41.139Z,93974.34
2022-10-09T15:48:43.581Z,93981.28
2022-10-09T15:53:47.240Z,93978.06
2022-10-09T15:58:49.939Z,93982.31
2022-10-09T16:03:52.534Z,93975.81
2022-10-09T16:08:58.319Z,93975.06
2022-10-09T16:14:00.854Z,93978.97
2022-10-09T16:19:04.914Z,93969.00
2022-10-09T16:24:09.810Z,93976.13
2022-10-09T16:29:13.645Z,93975.31
2022-10-09T16:34:18.022Z,93970.31
2022-10-09T16:39:23.965Z,93973.75
2022-10-09T16:44:26.129Z,93978.69
2022-10-09T16:49:31.225Z,93985.38
2022-10-09T16:54:33.230Z,93989.38
2022-10-09T16:59:35.601Z,93987.59
2022-10-09T17:04:37.791Z,93992.69
2022-10-09T17:09:40.609Z,94000.53
2022-10-09T17:14:42.523Z,94011.53
2022-10-09T17:19:45.953Z,94005.09
2022-10-09T17:24:47.894Z,94015.63
2022-10-09T17:29:50.157Z,94005.28
2022-10-09T17:34:52.093Z,94007.22
2022-10-09T17:39:53.922Z,94013.13
2022-10-09T17:44:55.739Z,94017.78
2022-10-09T17:49:57.581Z,94024.03
2022-10-09T17:54:59.424Z,94019.00
2022-10-09T18:00:01.655Z,94027.19
2022-10-09T18:05:04.289Z,94034.56
2022-10-09T18:10:06.725Z,94037.28
2022-10-09T18:15:09.193Z,94049.31
2022-10-09T18:20:11.162Z,94040.75
2022-10-09T18:25:13.155Z,94048.13
2022-10-09T18:30:15.233Z,94055.09
2022-10-09T18:35:17.222Z,94052.03
2022-10-09T18:40:19.766Z,94049.69
2022-10-09T18:45:21.634Z,94047.38
2022-10-09T18:50:23.754Z,94040.00
2022-10-09T18:55:25.847Z,94051.25
2022-10-09T19:00:27.906Z,94049.69
2022-10-09T19:05:29.927Z,94056.66
2022-10-09T19:10:31.875Z,94059.34
2022-10-09T19:15:34.329Z,94063.97
2022-10-09T19:20:39.329Z,94069.69
2022-10-09T19:25:55.514Z,94068.94
2022-10-09T19:30:57.537Z,94070.84
2022-10-09T19:35:59.632Z,94064.59
2022-10-09T19:41:11.022Z,94075.84
2022-10-09T19:46:17.609Z,94073.50
2022-10-09T19:51:22.955Z,94081.59
2022-10-09T19:56:27.061Z,94074.97
2022-10-09T20:01:29.589Z,94087.75
2022-10-09T20:06:31.722Z,94073.72
2022-10-09T20:11:34.884Z,94089.16
2022-10-09T20:16:37.081Z,94096.50
2022-10-09T20:21:39.054Z,94095.28
2022-10-09T20:26:43.115Z,94089.44
2022-10-09T20:31:45.398Z,94091.41
2022-10-09T20:36:47.335Z,94085.13
2022-10-09T20:41:49.483Z,94088.97
2022-10-09T20:46:56.595Z,94095.91
2022-10-09T20:51:58.537Z,94097.00
2022-10-09T20:57:00.369Z,94101.63
2022-10-09T21:02:02.298Z,94106.28
2022-10-09T21:07:04.232Z,94105.44
2022-10-09T21:12:07.083Z,94107.31
2022-10-09T21:17:09.040Z,94111.16
2022-10-09T21:22:10.838Z,94121.63
2022-10-09T21:27:13.054Z,94117.38
2022-10-09T21:32:14.967Z,94123.19
2022-10-09T21:37:21.586Z,94121.25
2022-10-09T21:42:24.024Z,94121.19
2022-10-09T21:47:25.841Z,94135.41
2022-10-09T21:52:27.710Z,94129.88
2022-10-09T21:57:29.597Z,94129.06
2022-10-09T22:02:31.753Z,94132.78
2022-10-09T22:07:33.981Z,94143.09
2022-10-09T22:12:37.953Z,94141.16
2022-10-09T22:17:39.975Z,94150.00
2022-10-09T22:22:41.822Z,94151.19
2022-10-09T22:27:43.606Z,94132.00
2022-10-09T22:32:45.480Z,94138.53
2022-10-09T22:37:47.605Z,94135.78
2022-10-09T22:42:49.668Z,94145.78
2022-10-09T22:47:51.550Z,94136.13
2022-10-09T22:52:53.538Z,94139.19
2022-10-09T22:57:55.468Z,94141.03
2022-10-09T23:02:57.318Z,94133.66
2022-10-09T23:07:59.158Z,94137.44
2022-10-09T23:13:01.007Z,94135.53
2022-10-09T23:18:04.498Z,94130.16
2022-10-09T23:23:06.313Z,94125.59
2022-10-09T23:28:08.391Z,94121.00
2022-10-09T23:33:10.250Z,94124.41
2022-10-09T23:38:12.246Z,94121.63
2022-10-09T23:43:14.068Z,94133.50
2022-10-09T23:48:15.955Z,94127.09
2022-10-09T23:53:18.329Z,94143.28
2022-10-09T23:58:21.765Z,94125.44
